createdAt,value
2019-03-25T00:00:03.729Z,0.00
2019-03-25T00:01:03.697Z,0.00
2019-03-25T00:02:03.688Z,0.00
2019-03-25T00:03:03.678Z,0.00
2019-03-25T00:04:03.675Z,0.00
2019-03-25T00:05:03.656Z,0.00
2019-03-25T00:06:03.699Z,0.00
2019-03-25T00:07:03.634Z,0.00
2019-03-25T00:08:03.624Z,0.00
2019-03-25T00:09:05.668Z,0.00
2019-03-25T00:10:03.606Z,0.00
2019-03-25T00:11:03.594Z,0.00
2019-03-25T00:12:03.630Z,0.00
2019-03-25T00:13:03.573Z,0.00
2019-03-25T00:14:03.560Z,0.00
2019-03-25T00:15:03.551Z,0.00
2019-03-25T00:16:03.541Z,0.00
2019-03-25T00:17:03.525Z,0.00
2019-03-25T00:18:03.566Z,0.00
2019-03-25T00:19:03.509Z,0.00
2019-03-25T00:20:03.499Z,0.00
2019-03-25T00:21:03.490Z,0.00
2019-03-25T00:22:03.477Z,0.00
2019-03-25T00:23:03.464Z,0.00
2019-03-25T00:24:03.509Z,0.00
2019-03-25T00:25:03.446Z,0.00
2019-03-25T00:26:03.434Z,0.00
2019-03-25T00:27:03.426Z,0.00
2019-03-25T00:28:03.420Z,0.00
2019-03-25T00:29:03.402Z,0.00
2019-03-25T00:30:03.408Z,0.00
2019-03-25T00:31:03.382Z,0.00
2019-03-25T00:32:03.370Z,0.00
2019-03-25T00:33:03.361Z,0.00
2019-03-25T00:34:03.350Z,0.00
2019-03-25T00:35:03.338Z,0.00
2019-03-25T00:36:03.344Z,0.00
2019-03-25T00:37:03.320Z,0.00
2019-03-25T00:38:03.309Z,0.00
2019-03-25T00:39:03.344Z,0.00
2019-03-25T00:40:03.283Z,0.00
2019-03-25T00:41:03.273Z,0.00
2019-03-25T00:42:03.276Z,0.00
2019-03-25T00:43:03.312Z,0.00
2019-03-25T00:44:03.242Z,0.00
2019-03-25T00:45:03.232Z,0.00
2019-03-25T00:46:03.222Z,0.00
2019-03-25T00:47:03.210Z,0.00
2019-03-25T00:48:03.216Z,0.00
2019-03-25T00:49:03.197Z,0.00
2019-03-25T00:50:03.177Z,0.00
2019-03-25T00:51:03.170Z,0.00
2019-03-25T00:52:03.161Z,0.00
2019-03-25T00:53:03.142Z,0.00
2019-03-25T00:54:03.171Z,0.00
2019-03-25T00:55:03.130Z,0.00
2019-03-25T00:56:03.114Z,0.00
2019-03-25T00:57:03.104Z,0.00
2019-03-25T00:58:03.094Z,0.00
2019-03-25T00:59:03.089Z,0.00
2019-03-25T01:00:03.088Z,0.00
2019-03-25T01:01:03.065Z,0.00
2019-03-25T01:02:03.052Z,0.00
2019-03-25T01:03:03.042Z,0.00
2019-03-25T01:04:03.029Z,0.00
2019-03-25T01:05:03.024Z,0.00
2019-03-25T01:06:03.061Z,0.00
2019-03-25T01:07:02.997Z,0.00
2019-03-25T01:08:02.988Z,0.00
2019-03-25T01:09:02.979Z,0.00
2019-03-25T01:10:02.965Z,0.00
2019-03-25T01:11:02.955Z,0.00
2019-03-25T01:12:02.994Z,0.00
2019-03-25T01:13:02.936Z,0.00
2019-03-25T01:14:02.930Z,0.00
2019-03-25T01:15:02.914Z,0.00
2019-03-25T01:16:02.901Z,0.00
2019-03-25T01:17:02.891Z,0.00
2019-03-25T01:18:02.912Z,0.00
2019-03-25T01:19:02.870Z,0.00
2019-03-25T01:20:02.860Z,0.00
2019-03-25T01:21:02.848Z,0.00
2019-03-25T01:22:02.839Z,0.00
2019-03-25T01:23:02.829Z,0.00
2019-03-25T01:24:02.866Z,0.00
2019-03-25T01:25:02.914Z,0.00
2019-03-25T01:26:02.803Z,0.00
2019-03-25T01:27:02.787Z,0.00
2019-03-25T01:28:02.774Z,0.00
2019-03-25T01:29:02.765Z,0.00
2019-03-25T01:30:02.803Z,0.00
2019-03-25T01:31:02.739Z,0.00
2019-03-25T01:32:02.733Z,0.00
2019-03-25T01:33:02.721Z,0.00
2019-03-25T01:34:02.710Z,0.00
2019-03-25T01:35:02.701Z,0.00
2019-03-25T01:36:02.711Z,0.00
2019-03-25T01:37:02.680Z,0.00
2019-03-25T01:38:02.669Z,0.00
2019-03-25T01:39:02.662Z,0.00
2019-03-25T01:40:02.645Z,0.00
2019-03-25T01:41:02.656Z,0.00
2019-03-25T01:42:02.642Z,0.00
2019-03-25T01:43:02.614Z,0.00
2019-03-25T01:44:02.601Z,0.00
2019-03-25T01:45:02.597Z,0.00
2019-03-25T01:46:02.581Z,0.00
2019-03-25T01:47:02.572Z,0.00
2019-03-25T01:48:02.610Z,0.00
2019-03-25T01:49:02.552Z,0.00
2019-03-25T01:50:02.539Z,0.00
2019-03-25T01:51:02.530Z,0.00
2019-03-25T01:52:02.518Z,0.00
2019-03-25T01:53:02.508Z,0.00
2019-03-25T01:54:02.543Z,0.00
2019-03-25T01:55:12.963Z,0.00
2019-03-25T01:56:03.470Z,0.00
2019-03-25T01:57:02.466Z,0.00
2019-03-25T01:58:02.457Z,0.00
2019-03-25T01:59:02.443Z,0.00
2019-03-25T02:00:02.479Z,0.00
2019-03-25T02:01:02.421Z,0.00
2019-03-25T02:02:02.419Z,0.00
2019-03-25T02:03:02.401Z,0.00
2019-03-25T02:04:02.392Z,0.00
2019-03-25T02:05:02.382Z,0.00
2019-03-25T02:06:02.442Z,0.00
2019-03-25T02:07:02.360Z,0.00
2019-03-25T02:08:02.350Z,0.00
2019-03-25T02:09:02.334Z,0.00
2019-03-25T02:10:02.330Z,0.00
2019-03-25T02:11:02.325Z,0.00
2019-03-25T02:12:02.328Z,0.00
2019-03-25T02:13:02.296Z,0.00
2019-03-25T02:14:02.286Z,0.00
2019-03-25T02:15:02.273Z,0.00
2019-03-25T02:16:02.267Z,0.00
2019-03-25T02:17:02.254Z,0.00
2019-03-25T02:18:02.295Z,0.00
2019-03-25T02:19:02.231Z,0.00
2019-03-25T02:20:02.222Z,0.00
2019-03-25T02:21:02.316Z,0.00
2019-03-25T02:22:02.199Z,0.00
2019-03-25T02:23:02.411Z,0.00
2019-03-25T02:24:02.282Z,0.00
2019-03-25T02:25:02.169Z,0.00
2019-03-25T02:26:02.158Z,0.00
2019-03-25T02:27:02.148Z,0.00
2019-03-25T02:28:02.135Z,0.00
2019-03-25T02:29:02.129Z,0.00
2019-03-25T02:30:02.169Z,0.00
2019-03-25T02:31:02.104Z,0.00
2019-03-25T02:32:02.095Z,0.00
2019-03-25T02:33:02.089Z,0.00
2019-03-25T02:34:02.077Z,0.00
2019-03-25T02:35:02.079Z,0.00
2019-03-25T02:36:02.101Z,0.00
2019-03-25T02:37:02.043Z,0.00
2019-03-25T02:38:02.040Z,0.00
2019-03-25T02:39:02.021Z,0.00
2019-03-25T02:40:02.018Z,0.00
2019-03-25T02:41:02.026Z,0.00
2019-03-25T02:42:02.043Z,0.00
2019-03-25T02:43:01.977Z,0.00
2019-03-25T02:44:01.974Z,0.00
2019-03-25T02:45:02.008Z,0.00
2019-03-25T02:46:01.948Z,0.00
2019-03-25T02:47:01.938Z,0.00
2019-03-25T02:48:02.395Z,0.00
2019-03-25T02:49:01.915Z,0.00
2019-03-25T02:50:01.905Z,0.00
2019-03-25T02:51:01.896Z,0.00
2019-03-25T02:52:01.883Z,0.00
2019-03-25T02:53:01.874Z,0.00
2019-03-25T02:54:02.037Z,0.00
2019-03-25T02:55:01.855Z,0.00
2019-03-25T02:56:01.841Z,0.00
2019-03-25T02:57:01.843Z,0.00
2019-03-25T02:58:01.818Z,0.00
2019-03-25T02:59:01.807Z,0.00
2019-03-25T03:00:01.848Z,0.00
2019-03-25T03:01:01.789Z,0.00
2019-03-25T03:02:01.776Z,0.00
2019-03-25T03:03:01.768Z,0.00
2019-03-25T03:04:01.759Z,0.00
2019-03-25T03:05:01.756Z,0.00
2019-03-25T03:06:01.786Z,0.00
2019-03-25T03:07:01.723Z,0.00
2019-03-25T03:08:01.708Z,0.00
2019-03-25T03:09:01.703Z,0.00
2019-03-25T03:10:01.691Z,0.00
2019-03-25T03:11:01.679Z,0.00
2019-03-25T03:12:01.720Z,0.00
2019-03-25T03:13:01.656Z,0.00
2019-03-25T03:14:01.648Z,0.00
2019-03-25T03:15:01.638Z,0.00
2019-03-25T03:16:01.625Z,0.00
2019-03-25T03:17:01.617Z,0.00
2019-03-25T03:18:01.632Z,0.00
2019-03-25T03:19:01.594Z,0.00
2019-03-25T03:20:01.595Z,0.00
2019-03-25T03:21:01.572Z,0.00
2019-03-25T03:22:01.565Z,0.00
2019-03-25T03:23:01.552Z,0.00
2019-03-25T03:24:01.555Z,0.00
2019-03-25T03:25:01.543Z,0.00
2019-03-25T03:26:01.524Z,0.00
2019-03-25T03:27:01.510Z,0.00
2019-03-25T03:28:01.501Z,0.00
2019-03-25T03:29:01.497Z,0.00
2019-03-25T03:30:01.521Z,0.00
2019-03-25T03:31:01.478Z,0.00
2019-03-25T03:32:01.474Z,0.00
2019-03-25T03:33:01.457Z,0.00
2019-03-25T03:34:01.486Z,0.00
2019-03-25T03:35:01.425Z,0.00
2019-03-25T03:36:01.511Z,0.00
2019-03-25T03:37:01.405Z,0.00
2019-03-25T03:38:01.394Z,0.00
2019-03-25T03:39:01.382Z,0.00
2019-03-25T03:40:01.373Z,0.00
2019-03-25T03:41:01.360Z,0.00
2019-03-25T03:42:01.408Z,0.00
2019-03-25T03:43:01.342Z,0.00
2019-03-25T03:44:01.328Z,0.00
2019-03-25T03:45:01.355Z,0.00
2019-03-25T03:46:01.308Z,0.00
2019-03-25T03:47:01.296Z,0.00
2019-03-25T03:48:01.336Z,0.00
2019-03-25T03:49:01.277Z,0.00
2019-03-25T03:50:01.266Z,0.00
2019-03-25T03:51:01.254Z,0.00
2019-03-25T03:52:01.247Z,0.00
2019-03-25T03:53:01.232Z,0.00
2019-03-25T03:54:01.242Z,0.00
2019-03-25T03:55:01.234Z,0.00
2019-03-25T03:56:12.610Z,0.00
2019-03-25T03:57:02.190Z,0.00
2019-03-25T03:58:01.182Z,0.00
2019-03-25T03:59:01.169Z,0.00
2019-03-25T04:00:01.172Z,0.00
2019-03-25T04:01:01.154Z,0.00
2019-03-25T04:02:01.144Z,0.00
2019-03-25T04:03:01.127Z,0.00
2019-03-25T04:04:01.116Z,0.00
2019-03-25T04:05:01.114Z,0.00
2019-03-25T04:06:01.118Z,0.00
2019-03-25T04:07:01.080Z,0.00
2019-03-25T04:08:01.076Z,0.00
2019-03-25T04:09:01.063Z,0.00
2019-03-25T04:10:01.052Z,0.00
2019-03-25T04:11:01.046Z,0.00
2019-03-25T04:12:01.047Z,0.00
2019-03-25T04:13:01.019Z,0.00
2019-03-25T04:14:01.013Z,0.00
2019-03-25T04:15:01.005Z,0.00
2019-03-25T04:16:01.602Z,0.00
2019-03-25T04:17:00.977Z,0.00
2019-03-25T04:18:00.993Z,0.00
2019-03-25T04:19:00.956Z,0.00
2019-03-25T04:20:00.945Z,0.00
2019-03-25T04:21:00.936Z,0.00
2019-03-25T04:22:00.925Z,0.00
2019-03-25T04:23:00.917Z,0.00
2019-03-25T04:24:00.955Z,0.00
2019-03-25T04:25:00.907Z,0.00
2019-03-25T04:26:00.881Z,0.00
2019-03-25T04:27:00.873Z,0.00
2019-03-25T04:28:00.860Z,0.00
2019-03-25T04:29:00.849Z,0.00
2019-03-25T04:30:00.894Z,0.00
2019-03-25T04:31:00.830Z,0.00
2019-03-25T04:32:00.819Z,0.00
2019-03-25T04:33:00.809Z,0.00
2019-03-25T04:34:00.796Z,0.00
2019-03-25T04:35:00.786Z,0.00
2019-03-25T04:36:00.821Z,0.00
2019-03-25T04:37:00.769Z,0.00
2019-03-25T04:38:00.761Z,0.00
2019-03-25T04:39:00.747Z,0.00
2019-03-25T04:40:00.735Z,0.00
2019-03-25T04:41:00.733Z,0.00
2019-03-25T04:42:00.731Z,0.00
2019-03-25T04:43:07.755Z,0.00
2019-03-25T04:44:00.715Z,0.00
2019-03-25T04:45:00.709Z,0.00
2019-03-25T04:46:00.680Z,0.00
2019-03-25T04:47:00.660Z,0.00
2019-03-25T04:48:00.670Z,0.00
2019-03-25T04:49:00.651Z,0.00
2019-03-25T04:50:00.637Z,0.00
2019-03-25T04:51:00.634Z,0.00
2019-03-25T04:52:00.619Z,0.00
2019-03-25T04:53:00.624Z,0.00
2019-03-25T04:54:00.646Z,0.00
2019-03-25T04:55:00.601Z,0.00
2019-03-25T04:56:00.588Z,0.00
2019-03-25T04:57:00.554Z,0.00
2019-03-25T04:58:00.563Z,0.00
2019-03-25T04:59:00.553Z,0.00
2019-03-25T05:00:00.583Z,0.00
2019-03-25T05:01:00.537Z,0.00
2019-03-25T05:02:00.507Z,0.00
2019-03-25T05:03:00.496Z,0.00
2019-03-25T05:04:00.484Z,0.00
2019-03-25T05:05:00.499Z,0.00
2019-03-25T05:06:00.515Z,0.00
2019-03-25T05:07:00.470Z,0.00
2019-03-25T05:08:00.440Z,0.00
2019-03-25T05:09:00.434Z,0.00
2019-03-25T05:10:00.432Z,0.00
2019-03-25T05:11:00.402Z,0.00
2019-03-25T05:12:00.446Z,0.00
2019-03-25T05:13:00.398Z,0.00
2019-03-25T05:14:00.379Z,0.00
2019-03-25T05:15:00.377Z,0.00
2019-03-25T05:16:00.372Z,0.00
2019-03-25T05:17:00.405Z,0.00
2019-03-25T05:18:00.350Z,0.00
2019-03-25T05:19:00.327Z,0.00
2019-03-25T05:20:00.369Z,0.00
2019-03-25T05:21:00.302Z,0.00
2019-03-25T05:22:00.326Z,0.00
2019-03-25T05:23:00.286Z,0.00
2019-03-25T05:24:00.276Z,0.00
2019-03-25T05:25:00.369Z,0.00
2019-03-25T05:26:00.263Z,0.00
2019-03-25T05:27:00.234Z,5.62
2019-03-25T05:28:00.240Z,5.62
2019-03-25T05:29:00.224Z,5.62
2019-03-25T05:30:00.437Z,5.62
2019-03-25T05:31:00.199Z,5.62
2019-03-25T05:32:00.182Z,5.62
2019-03-25T05:33:00.173Z,5.62
2019-03-25T05:34:00.176Z,5.62
2019-03-25T05:35:00.325Z,5.62
2019-03-25T05:36:00.208Z,5.62
2019-03-25T05:37:00.144Z,5.62
2019-03-25T05:38:00.129Z,11.25
2019-03-25T05:39:00.119Z,5.62
2019-03-25T05:40:00.157Z,5.62
2019-03-25T05:41:00.080Z,11.25
2019-03-25T05:42:00.100Z,11.25
2019-03-25T05:43:00.067Z,11.25
2019-03-25T05:44:00.057Z,11.25
2019-03-25T05:45:00.037Z,11.25
2019-03-25T05:46:00.028Z,11.25
2019-03-25T05:47:00.015Z,16.88
2019-03-25T05:48:00.119Z,11.25
2019-03-25T05:49:00.012Z,11.25
2019-03-25T05:50:00.012Z,16.88
2019-03-25T05:50:59.977Z,16.88
2019-03-25T05:52:00.009Z,16.88
2019-03-25T05:52:59.963Z,16.88
2019-03-25T05:53:59.993Z,22.50
2019-03-25T05:54:59.932Z,22.50
2019-03-25T05:55:59.919Z,22.50
2019-03-25T05:57:02.855Z,28.12
2019-03-25T05:57:59.910Z,28.12
2019-03-25T05:58:59.887Z,33.75
2019-03-25T05:59:59.934Z,33.75
2019-03-25T06:00:59.896Z,33.75
2019-03-25T06:01:59.875Z,33.75
2019-03-25T06:02:59.855Z,33.75
2019-03-25T06:03:59.845Z,33.75
2019-03-25T06:04:59.832Z,33.75
2019-03-25T06:05:59.880Z,33.75
2019-03-25T06:06:59.838Z,33.75
2019-03-25T06:07:59.829Z,33.75
2019-03-25T06:08:59.788Z,33.75
2019-03-25T06:09:59.769Z,39.38
2019-03-25T06:10:59.775Z,39.38
2019-03-25T06:11:59.808Z,39.38
2019-03-25T06:12:59.765Z,45.00
2019-03-25T06:13:59.746Z,45.00
2019-03-25T06:14:59.737Z,39.38
2019-03-25T06:15:59.714Z,39.38
2019-03-25T06:16:59.694Z,39.38
2019-03-25T06:17:59.698Z,39.38
2019-03-25T06:18:59.679Z,45.00
2019-03-25T06:19:59.675Z,56.25
2019-03-25T06:20:59.710Z,61.88
2019-03-25T06:21:59.640Z,61.88
2019-03-25T06:22:59.638Z,61.88
2019-03-25T06:23:59.655Z,56.25
2019-03-25T06:24:59.624Z,50.62
2019-03-25T06:25:59.602Z,50.62
2019-03-25T06:26:59.589Z,50.62
2019-03-25T06:27:59.592Z,61.88
2019-03-25T06:28:59.566Z,73.12
2019-03-25T06:29:59.628Z,84.38
2019-03-25T06:30:59.553Z,84.38
2019-03-25T06:31:59.552Z,84.38
2019-03-25T06:32:59.565Z,84.38
2019-03-25T06:33:59.519Z,84.38
2019-03-25T06:34:59.503Z,84.38
2019-03-25T06:35:59.567Z,90.00
2019-03-25T06:37:00.061Z,95.62
2019-03-25T06:37:59.474Z,95.62
2019-03-25T06:38:59.488Z,106.88
2019-03-25T06:39:59.460Z,112.50
2019-03-25T06:40:59.440Z,140.62
2019-03-25T06:41:59.480Z,180.00
2019-03-25T06:42:59.418Z,213.75
2019-03-25T06:43:59.408Z,253.12
2019-03-25T06:44:59.401Z,303.75
2019-03-25T06:45:59.389Z,337.50
2019-03-25T06:46:59.382Z,348.75
2019-03-25T06:47:59.430Z,365.62
2019-03-25T06:48:59.375Z,348.75
2019-03-25T06:49:59.356Z,286.88
2019-03-25T06:50:59.377Z,219.38
2019-03-25T06:51:59.389Z,163.12
2019-03-25T06:52:59.309Z,135.00
2019-03-25T06:53:59.339Z,135.00
2019-03-25T06:54:59.283Z,135.00
2019-03-25T06:55:59.290Z,135.00
2019-03-25T06:56:59.270Z,140.62
2019-03-25T06:57:59.280Z,146.25
2019-03-25T06:58:59.246Z,157.50
2019-03-25T06:59:59.259Z,174.38
2019-03-25T07:00:59.226Z,202.50
2019-03-25T07:01:59.210Z,208.12
2019-03-25T07:02:59.202Z,196.88
2019-03-25T07:03:59.196Z,185.62
2019-03-25T07:04:59.210Z,208.12
2019-03-25T07:05:59.235Z,236.25
2019-03-25T07:06:59.188Z,253.12
2019-03-25T07:07:59.154Z,264.38
2019-03-25T07:08:59.142Z,281.25
2019-03-25T07:09:59.187Z,292.50
2019-03-25T07:10:59.119Z,298.12
2019-03-25T07:11:59.149Z,326.25
2019-03-25T07:12:59.098Z,343.12
2019-03-25T07:13:59.092Z,320.62
2019-03-25T07:14:59.079Z,298.12
2019-03-25T07:15:59.063Z,298.12
2019-03-25T07:16:59.050Z,320.62
2019-03-25T07:17:59.112Z,326.25
2019-03-25T07:18:59.031Z,337.50
2019-03-25T07:19:59.028Z,337.50
2019-03-25T07:20:59.009Z,298.12
2019-03-25T07:21:59.008Z,281.25
2019-03-25T07:22:59.002Z,281.25
2019-03-25T07:23:59.025Z,303.75
2019-03-25T07:24:58.966Z,371.25
2019-03-25T07:25:58.957Z,416.25
2019-03-25T07:26:58.941Z,421.88
2019-03-25T07:27:58.945Z,444.38
2019-03-25T07:28:58.932Z,506.25
2019-03-25T07:29:58.970Z,562.50
2019-03-25T07:30:58.899Z,590.62
2019-03-25T07:31:58.893Z,585.00
2019-03-25T07:32:58.881Z,573.75
2019-03-25T07:33:58.887Z,585.00
2019-03-25T07:34:58.872Z,675.00
2019-03-25T07:35:58.925Z,551.25
2019-03-25T07:36:58.839Z,489.38
2019-03-25T07:37:58.833Z,579.38
2019-03-25T07:39:00.192Z,652.50
2019-03-25T07:39:58.830Z,691.88
2019-03-25T07:40:58.797Z,1372.50
2019-03-25T07:41:58.805Z,1451.25
2019-03-25T07:42:58.775Z,1040.62
2019-03-25T07:43:58.766Z,1158.75
2019-03-25T07:44:58.753Z,1158.75
2019-03-25T07:45:58.759Z,877.50
2019-03-25T07:46:58.775Z,855.00
2019-03-25T07:47:58.754Z,855.00
2019-03-25T07:48:58.712Z,810.00
2019-03-25T07:49:58.702Z,731.25
2019-03-25T07:50:58.701Z,573.75
2019-03-25T07:51:58.679Z,483.75
2019-03-25T07:52:58.673Z,433.12
2019-03-25T07:53:58.717Z,405.00
2019-03-25T07:54:58.657Z,393.75
2019-03-25T07:55:58.644Z,393.75
2019-03-25T07:56:58.658Z,399.38
2019-03-25T07:57:58.622Z,416.25
2019-03-25T07:58:58.642Z,388.12
2019-03-25T07:59:58.657Z,388.12
2019-03-25T08:00:58.601Z,382.50
2019-03-25T08:01:58.623Z,382.50
2019-03-25T08:02:58.563Z,376.88
2019-03-25T08:03:58.584Z,376.88
2019-03-25T08:04:58.551Z,365.62
2019-03-25T08:05:58.587Z,365.62
2019-03-25T08:06:58.541Z,371.25
2019-03-25T08:07:58.530Z,376.88
2019-03-25T08:09:03.727Z,393.75
2019-03-25T08:09:59.494Z,410.62
2019-03-25T08:10:58.513Z,450.00
2019-03-25T08:11:58.517Z,466.88
2019-03-25T08:12:58.510Z,466.88
2019-03-25T08:13:58.472Z,455.62
2019-03-25T08:14:58.431Z,461.25
2019-03-25T08:15:58.434Z,483.75
2019-03-25T08:16:58.444Z,511.88
2019-03-25T08:17:58.453Z,551.25
2019-03-25T08:18:58.386Z,585.00
2019-03-25T08:19:58.431Z,658.12
2019-03-25T08:20:58.409Z,697.50
2019-03-25T08:21:58.364Z,731.25
2019-03-25T08:22:58.361Z,787.50
2019-03-25T08:23:58.348Z,804.38
2019-03-25T08:24:58.323Z,990.00
2019-03-25T08:25:58.309Z,900.00
2019-03-25T08:26:58.306Z,1254.38
2019-03-25T08:28:00.334Z,1524.38
2019-03-25T08:28:58.313Z,1788.75
2019-03-25T08:29:58.287Z,2160.00
2019-03-25T08:30:58.261Z,1327.50
2019-03-25T08:31:59.070Z,2362.50
2019-03-25T08:32:58.254Z,1738.12
2019-03-25T08:33:58.232Z,1462.50
2019-03-25T08:34:58.232Z,1310.62
2019-03-25T08:35:58.261Z,1873.12
2019-03-25T08:36:58.193Z,1153.12
2019-03-25T08:37:58.184Z,2356.88
2019-03-25T08:38:58.174Z,2165.62
2019-03-25T08:39:58.161Z,1496.25
2019-03-25T08:40:58.151Z,900.00
2019-03-25T08:41:58.183Z,871.88
2019-03-25T08:42:58.135Z,945.00
2019-03-25T08:43:58.121Z,1366.88
2019-03-25T08:44:58.123Z,973.12
2019-03-25T08:45:58.094Z,1012.50
2019-03-25T08:46:58.084Z,2334.38
2019-03-25T08:47:58.094Z,2497.50
2019-03-25T08:48:58.062Z,2829.38
2019-03-25T08:49:58.055Z,2885.62
2019-03-25T08:50:58.039Z,2671.88
2019-03-25T08:51:58.035Z,2655.00
2019-03-25T08:52:58.075Z,2463.75
2019-03-25T08:53:58.110Z,2683.12
2019-03-25T08:54:58.000Z,2514.38
2019-03-25T08:55:57.993Z,1535.62
2019-03-25T08:56:57.978Z,2621.25
2019-03-25T08:57:57.967Z,1710.00
2019-03-25T08:58:57.971Z,1974.38
2019-03-25T08:59:58.021Z,2683.12
2019-03-25T09:00:57.947Z,2227.50
2019-03-25T09:01:57.930Z,1260.00
2019-03-25T09:02:57.917Z,1321.88
2019-03-25T09:03:57.919Z,2992.50
2019-03-25T09:04:57.945Z,2919.38
2019-03-25T09:05:59.475Z,2525.62
2019-03-25T09:06:57.874Z,1181.25
2019-03-25T09:07:57.865Z,1800.00
2019-03-25T09:08:57.856Z,1558.12
2019-03-25T09:09:57.854Z,2165.62
2019-03-25T09:10:57.835Z,1676.25
2019-03-25T09:11:57.859Z,2233.12
2019-03-25T09:12:57.819Z,1552.50
2019-03-25T09:13:57.801Z,1338.75
2019-03-25T09:14:57.791Z,1130.62
2019-03-25T09:15:57.774Z,1057.50
2019-03-25T09:17:00.475Z,1220.62
2019-03-25T09:17:57.768Z,1125.00
2019-03-25T09:18:57.779Z,1136.25
2019-03-25T09:19:57.745Z,1074.38
2019-03-25T09:20:57.729Z,1046.25
2019-03-25T09:21:57.707Z,1018.12
2019-03-25T09:22:57.700Z,1001.25
2019-03-25T09:23:57.759Z,1040.62
2019-03-25T09:24:57.678Z,1068.75
2019-03-25T09:25:57.694Z,1130.62
2019-03-25T09:26:57.675Z,1220.62
2019-03-25T09:27:57.651Z,1372.50
2019-03-25T09:28:57.632Z,1389.38
2019-03-25T09:29:57.639Z,1501.88
2019-03-25T09:30:57.610Z,1411.88
2019-03-25T09:31:57.601Z,2508.75
2019-03-25T09:32:57.613Z,1327.50
2019-03-25T09:33:57.597Z,3211.88
2019-03-25T09:34:57.572Z,1850.62
2019-03-25T09:35:57.627Z,1276.88
2019-03-25T09:36:57.556Z,1265.62
2019-03-25T09:37:57.543Z,3003.75
2019-03-25T09:38:57.531Z,3183.75
2019-03-25T09:39:57.523Z,3240.00
2019-03-25T09:40:57.504Z,3408.75
2019-03-25T09:41:57.531Z,3285.00
2019-03-25T09:42:57.504Z,2683.12
2019-03-25T09:43:57.478Z,3425.62
2019-03-25T09:44:57.463Z,3313.12
2019-03-25T09:45:57.450Z,3285.00
2019-03-25T09:46:57.441Z,2975.62
2019-03-25T09:47:57.450Z,3470.62
2019-03-25T09:48:57.444Z,3622.50
2019-03-25T09:49:57.409Z,3538.12
2019-03-25T09:50:57.405Z,3206.25
2019-03-25T09:51:57.391Z,2221.88
2019-03-25T09:52:57.379Z,1389.38
2019-03-25T09:53:57.417Z,2626.88
2019-03-25T09:54:57.392Z,905.62
2019-03-25T09:55:57.345Z,961.88
2019-03-25T09:56:57.335Z,2986.88
2019-03-25T09:57:57.322Z,1968.75
2019-03-25T09:58:57.312Z,1389.38
2019-03-25T09:59:57.357Z,3583.12
2019-03-25T10:00:57.318Z,3076.88
2019-03-25T10:01:57.292Z,3166.88
2019-03-25T10:02:57.277Z,2458.12
2019-03-25T10:03:57.263Z,4005.00
2019-03-25T10:04:57.254Z,3988.12
2019-03-25T10:05:57.286Z,3965.62
2019-03-25T10:06:57.243Z,3808.12
2019-03-25T10:07:57.237Z,1513.12
2019-03-25T10:08:57.209Z,3346.88
2019-03-25T10:09:57.196Z,1316.25
2019-03-25T10:10:57.180Z,1147.50
2019-03-25T10:11:57.229Z,1091.25
2019-03-25T10:12:57.161Z,1248.75
2019-03-25T10:13:57.194Z,1248.75
2019-03-25T10:14:57.142Z,1113.75
2019-03-25T10:15:57.132Z,1164.38
2019-03-25T10:16:57.119Z,1209.38
2019-03-25T10:17:57.138Z,1344.38
2019-03-25T10:18:57.101Z,1260.00
2019-03-25T10:19:57.087Z,1203.75
2019-03-25T10:20:57.088Z,1125.00
2019-03-25T10:21:57.065Z,1006.88
2019-03-25T10:22:57.055Z,950.62
2019-03-25T10:23:57.106Z,900.00
2019-03-25T10:24:57.041Z,984.38
2019-03-25T10:25:57.025Z,1102.50
2019-03-25T10:26:57.008Z,1170.00
2019-03-25T10:27:56.999Z,1299.38
2019-03-25T10:28:57.003Z,1445.62
2019-03-25T10:29:57.106Z,1541.25
2019-03-25T10:30:56.971Z,3245.62
2019-03-25T10:31:56.954Z,1248.75
2019-03-25T10:32:56.948Z,1119.38
2019-03-25T10:33:56.935Z,967.50
2019-03-25T10:34:56.926Z,950.62
2019-03-25T10:35:57.006Z,1006.88
2019-03-25T10:36:56.906Z,1018.12
2019-03-25T10:37:56.896Z,1012.50
2019-03-25T10:38:56.884Z,1035.00
2019-03-25T10:39:56.885Z,978.75
2019-03-25T10:40:56.858Z,883.12
2019-03-25T10:41:56.909Z,849.38
2019-03-25T10:42:56.853Z,883.12
2019-03-25T10:44:03.867Z,939.38
2019-03-25T10:44:56.815Z,1001.25
2019-03-25T10:45:56.805Z,1406.25
2019-03-25T10:46:56.792Z,1046.25
2019-03-25T10:47:56.846Z,911.25
2019-03-25T10:48:56.769Z,866.25
2019-03-25T10:49:56.763Z,939.38
2019-03-25T10:50:56.747Z,1636.88
2019-03-25T10:51:56.740Z,1372.50
2019-03-25T10:52:56.731Z,3515.62
2019-03-25T10:53:56.737Z,3296.25
2019-03-25T10:55:56.693Z,3656.25
2019-03-25T10:56:56.689Z,3510.00
2019-03-25T10:57:56.673Z,3706.88
2019-03-25T10:58:58.325Z,4016.25
2019-03-25T10:59:56.663Z,3690.00
2019-03-25T11:00:56.638Z,3571.88
2019-03-25T11:01:56.628Z,3796.88
2019-03-25T11:02:56.619Z,2064.38
2019-03-25T11:03:56.608Z,1760.62
2019-03-25T11:04:56.596Z,1569.38
2019-03-25T11:05:56.656Z,1485.00
2019-03-25T11:06:56.574Z,1665.00
2019-03-25T11:07:56.566Z,1383.75
2019-03-25T11:08:56.555Z,1355.62
2019-03-25T11:09:56.542Z,1423.12
2019-03-25T11:10:56.533Z,1355.62
2019-03-25T11:11:56.577Z,1310.62
2019-03-25T11:12:56.515Z,1310.62
2019-03-25T11:13:56.513Z,1125.00
2019-03-25T11:14:56.495Z,984.38
2019-03-25T11:15:56.486Z,961.88
2019-03-25T11:16:56.468Z,1035.00
2019-03-25T11:17:56.511Z,1141.88
2019-03-25T11:18:56.447Z,1248.75
2019-03-25T11:19:56.436Z,1305.00
2019-03-25T11:20:56.423Z,1451.25
2019-03-25T11:21:56.417Z,1513.12
2019-03-25T11:22:56.402Z,1816.88
2019-03-25T11:23:56.439Z,1726.88
2019-03-25T11:24:56.389Z,2340.00
2019-03-25T11:25:56.376Z,1653.75
2019-03-25T11:26:56.359Z,1434.38
2019-03-25T11:27:56.353Z,1333.12
2019-03-25T11:28:56.337Z,1350.00
2019-03-25T11:29:56.372Z,1372.50
2019-03-25T11:30:56.315Z,1276.88
2019-03-25T11:31:56.305Z,1260.00
2019-03-25T11:32:56.297Z,1119.38
2019-03-25T11:33:56.286Z,1029.38
2019-03-25T11:34:56.272Z,939.38
2019-03-25T11:35:56.320Z,922.50
2019-03-25T11:36:56.252Z,950.62
2019-03-25T11:37:56.239Z,984.38
2019-03-25T11:38:56.229Z,1046.25
2019-03-25T11:39:56.227Z,1113.75
2019-03-25T11:40:56.207Z,1170.00
2019-03-25T11:41:56.214Z,1130.62
2019-03-25T11:42:56.189Z,1040.62
2019-03-25T11:43:56.175Z,928.12
2019-03-25T11:44:56.175Z,883.12
2019-03-25T11:45:56.156Z,866.25
2019-03-25T11:46:56.144Z,866.25
2019-03-25T11:47:56.185Z,855.00
2019-03-25T11:48:56.121Z,883.12
2019-03-25T11:49:56.108Z,945.00
2019-03-25T11:50:56.105Z,961.88
2019-03-25T11:51:56.089Z,973.12
2019-03-25T11:52:56.076Z,950.62
2019-03-25T11:53:56.120Z,956.25
2019-03-25T11:54:56.054Z,916.88
2019-03-25T11:55:56.045Z,855.00
2019-03-25T11:56:56.035Z,821.25
2019-03-25T11:57:56.022Z,759.38
2019-03-25T11:58:56.013Z,736.88
2019-03-25T11:59:56.054Z,759.38
2019-03-25T12:00:55.991Z,804.38
2019-03-25T12:01:55.980Z,866.25
2019-03-25T12:02:55.972Z,933.75
2019-03-25T12:03:55.961Z,1029.38
2019-03-25T12:04:55.948Z,1170.00
2019-03-25T12:05:55.994Z,1226.25
2019-03-25T12:06:55.929Z,1136.25
2019-03-25T12:07:55.916Z,1023.75
2019-03-25T12:08:55.940Z,984.38
2019-03-25T12:09:55.898Z,916.88
2019-03-25T12:10:55.888Z,815.62
2019-03-25T12:11:55.929Z,742.50
2019-03-25T12:12:55.868Z,725.62
2019-03-25T12:13:55.855Z,776.25
2019-03-25T12:14:55.845Z,855.00
2019-03-25T12:15:55.832Z,945.00
2019-03-25T12:16:55.823Z,1029.38
2019-03-25T12:17:55.829Z,1091.25
2019-03-25T12:18:55.801Z,1141.88
2019-03-25T12:19:55.791Z,1625.62
2019-03-25T12:20:55.778Z,2328.75
2019-03-25T12:21:55.768Z,1473.75
2019-03-25T12:22:55.758Z,2626.88
2019-03-25T12:23:55.800Z,3054.38
2019-03-25T12:24:55.736Z,1018.12
2019-03-25T12:25:55.726Z,832.50
2019-03-25T12:26:55.717Z,669.38
2019-03-25T12:27:55.704Z,551.25
2019-03-25T12:28:55.692Z,506.25
2019-03-25T12:29:55.765Z,483.75
2019-03-25T12:30:55.673Z,461.25
2019-03-25T12:31:55.659Z,450.00
2019-03-25T12:33:03.532Z,455.62
2019-03-25T12:33:56.637Z,466.88
2019-03-25T12:34:55.629Z,511.88
2019-03-25T12:35:55.665Z,551.25
2019-03-25T12:36:55.608Z,579.38
2019-03-25T12:37:55.593Z,613.12
2019-03-25T12:38:55.591Z,641.25
2019-03-25T12:39:55.574Z,680.62
2019-03-25T12:40:55.568Z,753.75
2019-03-25T12:41:55.610Z,781.88
2019-03-25T12:42:55.542Z,1057.50
2019-03-25T12:43:55.536Z,990.00
2019-03-25T12:44:55.523Z,1698.75
2019-03-25T12:45:55.511Z,1203.75